createdAt,value
2018-07-24T00:00:39.593Z,99.30
2018-07-24T00:03:09.062Z,99.50
2018-07-24T00:05:38.848Z,99.60
2018-07-24T00:08:08.080Z,99.90
2018-07-24T00:10:37.375Z,99.50
2018-07-24T00:13:06.620Z,99.20
2018-07-24T00:15:35.917Z,99.20
2018-07-24T00:18:05.250Z,99.30
2018-07-24T00:20:34.583Z,99.60
2018-07-24T00:23:03.985Z,99.90
2018-07-24T00:25:33.206Z,99.90
2018-07-24T00:28:02.457Z,99.90
2018-07-24T00:30:31.780Z,99.90
2018-07-24T00:33:01.010Z,99.90
2018-07-24T00:35:30.453Z,99.90
2018-07-24T00:38:00.064Z,99.90
2018-07-24T00:40:29.364Z,99.90
2018-07-24T00:42:58.591Z,99.90
2018-07-24T00:45:27.847Z,99.90
2018-07-24T00:47:57.064Z,99.90
2018-07-24T00:50:26.392Z,99.90
2018-07-24T00:52:55.624Z,99.90
2018-07-24T00:57:53.673Z,99.90
2018-07-24T01:00:22.973Z,99.90
2018-07-24T01:02:52.200Z,99.90
2018-07-24T01:05:21.400Z,99.90
2018-07-24T01:07:50.669Z,99.90
2018-07-24T01:10:20.294Z,99.90
2018-07-24T01:12:49.504Z,99.90
2018-07-24T01:15:18.735Z,99.90
2018-07-24T01:17:47.981Z,99.90
2018-07-24T01:20:17.248Z,99.90
2018-07-24T01:22:46.504Z,99.90
2018-07-24T01:25:15.781Z,99.90
2018-07-24T01:27:44.976Z,99.90
2018-07-24T01:30:14.244Z,99.90
2018-07-24T01:32:43.466Z,99.90
2018-07-24T01:35:12.677Z,99.90
2018-07-24T01:37:41.942Z,99.90
2018-07-24T01:40:11.273Z,99.90
2018-07-24T01:42:40.545Z,99.90
2018-07-24T01:45:09.767Z,99.90
2018-07-24T01:47:39.197Z,99.90
2018-07-24T01:50:08.566Z,99.90
2018-07-24T01:52:37.803Z,99.90
2018-07-24T01:55:07.695Z,99.90
2018-07-24T01:57:36.891Z,99.90
2018-07-24T02:00:06.907Z,99.90
2018-07-24T02:02:36.144Z,99.90
2018-07-24T02:05:05.397Z,99.90
2018-07-24T02:07:34.603Z,99.90
2018-07-24T02:10:04.005Z,99.90
2018-07-24T02:12:33.231Z,99.90
2018-07-24T02:15:02.506Z,99.90
2018-07-24T02:17:31.700Z,99.90
2018-07-24T02:20:01.072Z,99.90
2018-07-24T02:22:30.336Z,99.90
2018-07-24T02:24:59.647Z,99.90
2018-07-24T02:29:57.795Z,99.90
2018-07-24T02:32:27.120Z,99.90
2018-07-24T02:34:56.370Z,99.90
2018-07-24T02:37:25.624Z,99.90
2018-07-24T02:39:54.892Z,99.90
2018-07-24T02:42:24.198Z,99.90
2018-07-24T02:44:53.872Z,99.90
2018-07-24T02:47:23.128Z,99.90
2018-07-24T02:49:52.408Z,99.90
2018-07-24T02:52:21.636Z,99.90
2018-07-24T02:54:50.907Z,99.90
2018-07-24T02:57:20.142Z,99.90
2018-07-24T02:59:49.368Z,99.90
2018-07-24T03:02:18.593Z,99.90
2018-07-24T03:04:47.821Z,99.90
2018-07-24T03:07:17.065Z,99.90
2018-07-24T03:09:46.365Z,99.90
2018-07-24T03:12:15.596Z,99.90
2018-07-24T03:14:44.917Z,99.90
2018-07-24T03:17:14.604Z,99.90
2018-07-24T03:19:43.841Z,99.90
2018-07-24T03:27:10.479Z,99.90
2018-07-24T03:29:39.878Z,99.90
2018-07-24T03:32:09.109Z,99.90
2018-07-24T03:34:38.344Z,99.90
2018-07-24T03:37:07.573Z,99.90
2018-07-24T03:39:36.879Z,99.90
2018-07-24T03:42:06.176Z,99.90
2018-07-24T03:44:35.400Z,99.90
2018-07-24T03:47:04.780Z,99.90
2018-07-24T03:49:35.481Z,99.90
2018-07-24T03:52:04.785Z,99.90
2018-07-24T03:54:34.009Z,99.90
2018-07-24T03:57:03.236Z,99.90
2018-07-24T03:59:32.501Z,99.90
2018-07-24T04:02:01.734Z,99.90
2018-07-24T04:04:30.979Z,99.90
2018-07-24T04:07:00.207Z,99.90
2018-07-24T04:09:29.498Z,99.90
2018-07-24T04:11:58.705Z,99.90
2018-07-24T04:14:27.973Z,99.90
2018-07-24T04:16:57.200Z,99.90
2018-07-24T04:19:26.501Z,99.90
2018-07-24T04:21:55.736Z,99.90
2018-07-24T04:24:25.042Z,99.90
2018-07-24T04:26:54.393Z,99.90
2018-07-24T04:29:23.773Z,99.90
2018-07-24T04:31:53.556Z,99.90
2018-07-24T04:34:23.950Z,99.90
2018-07-24T04:36:53.935Z,99.90
2018-07-24T04:39:24.686Z,99.90
2018-07-24T04:41:54.595Z,99.90
2018-07-24T04:44:24.833Z,99.90
2018-07-24T04:46:54.564Z,99.90
2018-07-24T04:49:25.002Z,99.90
2018-07-24T04:51:54.914Z,99.90
2018-07-24T04:54:25.380Z,99.90
2018-07-24T04:56:54.989Z,99.90
2018-07-24T04:59:24.949Z,99.90
2018-07-24T05:01:54.867Z,99.90
2018-07-24T05:04:24.662Z,99.90
2018-07-24T05:06:54.353Z,99.90
2018-07-24T05:09:24.459Z,99.90
2018-07-24T05:11:53.725Z,99.90
2018-07-24T05:14:23.544Z,99.90
2018-07-24T05:16:52.928Z,99.90
2018-07-24T05:19:22.284Z,99.90
2018-07-24T05:21:51.732Z,99.90
2018-07-24T05:24:21.121Z,99.90
2018-07-24T05:26:50.817Z,99.90
2018-07-24T05:29:20.436Z,99.90
2018-07-24T05:31:49.787Z,99.90
2018-07-24T05:34:19.108Z,99.90
2018-07-24T05:36:48.423Z,99.90
2018-07-24T05:39:17.795Z,99.90
2018-07-24T05:41:47.146Z,99.90
2018-07-24T05:44:16.474Z,99.90
2018-07-24T05:46:45.772Z,99.90
2018-07-24T05:51:43.879Z,99.90
2018-07-24T05:54:13.168Z,99.90
2018-07-24T05:59:11.827Z,99.90
2018-07-24T06:01:41.202Z,99.90
2018-07-24T06:04:13.428Z,99.90
2018-07-24T06:06:42.690Z,99.90
2018-07-24T06:09:12.111Z,99.90
2018-07-24T06:11:41.553Z,99.80
2018-07-24T06:14:10.936Z,99.70
2018-07-24T06:16:40.253Z,99.90
2018-07-24T06:19:09.709Z,99.90
2018-07-24T06:21:39.697Z,99.60
2018-07-24T06:24:09.065Z,99.90
2018-07-24T06:26:38.428Z,99.70
2018-07-24T06:29:08.017Z,99.90
2018-07-24T06:31:37.454Z,99.70
2018-07-24T06:34:07.597Z,99.50
2018-07-24T06:36:37.437Z,98.80
2018-07-24T06:39:10.823Z,98.90
2018-07-24T06:41:41.281Z,99.20
2018-07-24T06:44:12.247Z,99.70
2018-07-24T06:49:11.539Z,99.60
2018-07-24T06:51:41.541Z,99.00
2018-07-24T06:54:11.306Z,98.70
2018-07-24T06:56:41.088Z,98.70
2018-07-24T06:59:10.515Z,98.30
2018-07-24T07:01:40.272Z,98.60
2018-07-24T07:04:10.140Z,98.50
2018-07-24T07:06:40.020Z,98.60
2018-07-24T07:09:10.252Z,98.30
2018-07-24T07:11:40.330Z,98.50
2018-07-24T07:14:10.165Z,98.80
2018-07-24T07:16:40.155Z,98.20
2018-07-24T07:19:10.135Z,97.70
2018-07-24T07:21:40.400Z,98.10
2018-07-24T07:24:10.285Z,98.30
2018-07-24T07:26:40.211Z,97.50
2018-07-24T07:29:10.311Z,97.60
2018-07-24T07:31:40.273Z,98.10
2018-07-24T07:34:10.081Z,96.70
2018-07-24T07:36:39.923Z,97.00
2018-07-24T07:39:11.416Z,97.60
2018-07-24T07:41:41.433Z,96.70
2018-07-24T07:44:11.483Z,97.30
2018-07-24T07:46:41.503Z,97.10
2018-07-24T07:49:11.330Z,96.60
2018-07-24T07:51:41.857Z,97.10
2018-07-24T07:54:11.694Z,96.70
2018-07-24T07:56:41.543Z,96.80
2018-07-24T07:59:11.752Z,96.70
2018-07-24T08:01:41.784Z,96.20
2018-07-24T08:04:11.988Z,95.60
2018-07-24T08:06:42.118Z,95.50
2018-07-24T08:09:12.709Z,95.30
2018-07-24T08:11:42.282Z,96.50
2018-07-24T08:14:12.358Z,95.70
2018-07-24T08:16:42.405Z,95.70
2018-07-24T08:21:42.052Z,95.40
2018-07-24T08:24:11.671Z,95.60
2018-07-24T08:26:41.449Z,94.50
2018-07-24T08:29:11.394Z,94.60
2018-07-24T08:31:41.114Z,95.10
2018-07-24T08:34:11.242Z,94.30
2018-07-24T08:36:41.725Z,93.90
2018-07-24T08:39:12.781Z,94.50
2018-07-24T08:41:42.799Z,93.90
2018-07-24T08:46:41.944Z,92.30
2018-07-24T08:49:12.305Z,91.50
2018-07-24T08:51:42.151Z,91.90
2018-07-24T08:54:12.281Z,91.70
2018-07-24T08:56:41.942Z,92.10
2018-07-24T08:59:12.206Z,89.70
2018-07-24T09:04:11.589Z,91.60
2018-07-24T09:06:41.394Z,90.00
2018-07-24T09:09:13.647Z,89.30
2018-07-24T09:11:44.070Z,90.50
2018-07-24T09:14:13.867Z,90.00
2018-07-24T09:16:43.611Z,87.90
2018-07-24T09:19:13.500Z,87.10
2018-07-24T09:21:43.660Z,87.20
2018-07-24T09:24:13.621Z,89.30
2018-07-24T09:26:43.508Z,83.70
2018-07-24T09:29:13.331Z,85.60
2018-07-24T09:31:43.616Z,87.00
2018-07-24T09:34:13.769Z,87.40
2018-07-24T09:36:43.555Z,86.00
2018-07-24T09:39:13.253Z,84.00
2018-07-24T09:41:43.563Z,84.20
2018-07-24T09:44:13.207Z,83.70
2018-07-24T09:49:13.358Z,83.20
2018-07-24T09:51:43.275Z,83.40
2018-07-24T09:56:42.281Z,81.00
2018-07-24T09:59:12.325Z,78.60
2018-07-24T10:01:42.463Z,78.20
2018-07-24T10:04:12.418Z,76.20
2018-07-24T10:06:42.309Z,78.80
2018-07-24T10:09:12.328Z,77.80
2018-07-24T10:11:42.157Z,80.90
2018-07-24T10:14:12.116Z,76.70
2018-07-24T10:16:42.171Z,74.00
2018-07-24T10:19:12.079Z,72.10
2018-07-24T10:21:42.078Z,74.80
2018-07-24T10:24:11.997Z,72.80
2018-07-24T10:26:41.760Z,70.80
2018-07-24T10:29:11.856Z,71.00
2018-07-24T10:31:41.604Z,70.70
2018-07-24T10:34:11.471Z,69.10
2018-07-24T10:36:41.355Z,70.70
2018-07-24T10:39:12.477Z,65.50
2018-07-24T10:41:42.607Z,67.90
2018-07-24T10:44:12.575Z,75.10
2018-07-24T10:46:42.492Z,67.30
2018-07-24T10:49:12.364Z,64.70
2018-07-24T10:51:42.395Z,66.60
2018-07-24T10:54:12.128Z,69.40
2018-07-24T10:56:42.029Z,67.60
2018-07-24T10:59:11.785Z,64.50
2018-07-24T11:01:41.099Z,63.80
2018-07-24T11:04:10.929Z,60.40
2018-07-24T11:06:40.620Z,65.30
2018-07-24T11:09:10.110Z,62.90
2018-07-24T11:14:09.308Z,62.40
2018-07-24T11:16:39.305Z,59.80
2018-07-24T11:19:09.410Z,59.50
2018-07-24T11:21:39.345Z,62.50
2018-07-24T11:24:09.454Z,60.60
2018-07-24T11:26:38.756Z,60.40
2018-07-24T11:29:09.690Z,60.50
2018-07-24T11:31:39.379Z,59.60
2018-07-24T11:34:09.229Z,58.60
2018-07-24T11:36:39.232Z,56.80
2018-07-24T11:39:10.897Z,55.10
2018-07-24T11:41:41.114Z,56.70
2018-07-24T11:44:11.202Z,57.60
2018-07-24T11:46:40.918Z,51.00
2018-07-24T11:49:11.062Z,50.60
2018-07-24T11:51:40.953Z,51.10
2018-07-24T11:54:10.920Z,51.40
2018-07-24T11:56:40.882Z,50.80
2018-07-24T11:59:10.874Z,49.60
2018-07-24T12:01:40.659Z,49.80
2018-07-24T12:04:11.072Z,49.10
2018-07-24T12:06:41.111Z,50.70
2018-07-24T12:09:13.400Z,48.60
2018-07-24T12:11:43.977Z,49.20
2018-07-24T12:14:13.905Z,50.20
2018-07-24T12:16:43.649Z,49.80
2018-07-24T12:19:13.779Z,48.20
2018-07-24T12:21:43.432Z,48.40
2018-07-24T12:24:13.954Z,48.30
2018-07-24T12:26:43.757Z,49.30
2018-07-24T12:29:13.681Z,50.20
2018-07-24T12:31:43.459Z,47.60
2018-07-24T12:34:13.367Z,48.80
2018-07-24T12:36:43.625Z,45.70
2018-07-24T12:39:13.688Z,45.50
2018-07-24T12:41:43.004Z,47.90
2018-07-24T12:44:12.926Z,45.30
2018-07-24T12:49:11.755Z,47.30
2018-07-24T12:51:41.944Z,47.40
2018-07-24T12:54:11.711Z,46.70
2018-07-24T12:56:41.513Z,45.60
2018-07-24T12:59:11.314Z,44.10
2018-07-24T13:01:41.190Z,45.60
2018-07-24T13:04:10.782Z,44.60
2018-07-24T13:06:40.469Z,43.60
2018-07-24T13:09:11.805Z,43.80
2018-07-24T13:11:41.830Z,43.50
2018-07-24T13:14:11.609Z,45.80
2018-07-24T13:16:41.489Z,45.70
2018-07-24T13:19:10.891Z,43.50
2018-07-24T13:21:40.490Z,41.20
2018-07-24T13:24:10.540Z,43.80
2018-07-24T13:26:40.312Z,41.40
2018-07-24T13:29:11.245Z,43.50
2018-07-24T13:31:41.046Z,43.00
2018-07-24T13:34:10.821Z,42.60
2018-07-24T13:36:40.585Z,42.20
2018-07-24T13:39:11.714Z,42.80
2018-07-24T13:41:41.872Z,43.80
2018-07-24T13:44:11.277Z,41.90
2018-07-24T13:46:40.902Z,42.10
2018-07-24T13:49:10.819Z,41.10
2018-07-24T13:51:40.543Z,40.90
2018-07-24T13:54:10.372Z,41.60
2018-07-24T13:56:40.138Z,42.30
2018-07-24T13:59:10.372Z,41.20
2018-07-24T14:01:40.097Z,41.50
2018-07-24T14:04:09.834Z,39.80
2018-07-24T14:06:39.212Z,38.60
2018-07-24T14:09:11.038Z,40.20
2018-07-24T14:11:41.048Z,38.90
2018-07-24T14:14:10.863Z,38.80
2018-07-24T14:16:40.241Z,39.20
2018-07-24T14:19:09.630Z,38.80
2018-07-24T14:21:38.994Z,38.50
2018-07-24T14:24:08.483Z,37.80
2018-07-24T14:26:37.860Z,37.40
2018-07-24T14:29:09.299Z,36.40
2018-07-24T14:31:38.583Z,35.60
2018-07-24T14:34:07.912Z,35.80
2018-07-24T14:36:37.477Z,35.10
2018-07-24T14:39:10.837Z,37.20
2018-07-24T14:41:40.242Z,37.00
2018-07-24T14:44:10.512Z,35.00
2018-07-24T14:46:39.899Z,35.40
2018-07-24T14:49:09.280Z,35.50
2018-07-24T14:51:38.622Z,35.90
2018-07-24T14:54:07.908Z,35.80
2018-07-24T14:56:37.171Z,33.40
2018-07-24T14:59:06.629Z,35.10
2018-07-24T15:01:36.316Z,35.50
2018-07-24T15:04:05.823Z,33.60
2018-07-24T15:06:35.175Z,32.80
2018-07-24T15:09:06.666Z,33.50
2018-07-24T15:11:36.045Z,33.60
2018-07-24T15:14:05.441Z,32.30
2018-07-24T15:16:34.736Z,31.80
2018-07-24T15:19:04.181Z,32.80
2018-07-24T15:21:33.516Z,32.10
2018-07-24T15:24:02.837Z,32.80
2018-07-24T15:26:32.206Z,31.40
2018-07-24T15:29:01.584Z,34.10
2018-07-24T15:31:30.892Z,32.90
2018-07-24T15:34:00.304Z,31.80
2018-07-24T15:36:29.638Z,33.40
2018-07-24T15:38:59.059Z,30.40
2018-07-24T15:41:28.373Z,30.60
2018-07-24T15:43:57.864Z,31.60
2018-07-24T15:46:27.209Z,33.30
2018-07-24T15:48:56.600Z,32.90
2018-07-24T15:51:26.006Z,34.10
2018-07-24T15:53:55.333Z,31.80
2018-07-24T15:56:24.718Z,31.10
2018-07-24T15:58:54.263Z,34.30
2018-07-24T16:01:23.589Z,32.80
2018-07-24T16:03:52.945Z,34.20
2018-07-24T16:06:22.605Z,33.60
2018-07-24T16:08:51.969Z,34.10
2018-07-24T16:11:21.260Z,33.40
2018-07-24T16:13:50.964Z,34.40
2018-07-24T16:16:20.424Z,34.70
2018-07-24T16:18:49.888Z,33.90
2018-07-24T16:21:19.374Z,33.70
2018-07-24T16:23:48.717Z,34.00
2018-07-24T16:28:47.004Z,32.10
2018-07-24T16:33:45.506Z,34.10
2018-07-24T16:36:14.900Z,34.60
2018-07-24T16:38:44.764Z,34.20
2018-07-24T16:41:14.085Z,38.00
2018-07-24T16:43:43.320Z,38.90
2018-07-24T16:46:12.688Z,39.90
2018-07-24T16:48:42.190Z,41.30
2018-07-24T16:51:11.642Z,46.60
2018-07-24T16:53:41.031Z,45.50
2018-07-24T16:56:10.401Z,50.30
2018-07-24T16:58:39.872Z,49.10
2018-07-24T17:01:09.147Z,50.70
2018-07-24T17:03:38.506Z,50.60
2018-07-24T17:06:08.154Z,51.30
2018-07-24T17:08:37.491Z,51.30
2018-07-24T17:11:06.944Z,52.30
2018-07-24T17:13:36.254Z,52.80
2018-07-24T17:16:05.656Z,52.40
2018-07-24T17:18:34.968Z,52.80
2018-07-24T17:21:04.434Z,52.00
2018-07-24T17:23:33.852Z,52.60
2018-07-24T17:26:03.208Z,51.70
2018-07-24T17:28:32.479Z,53.00
2018-07-24T17:31:01.799Z,54.60
2018-07-24T17:33:31.143Z,56.50
2018-07-24T17:36:00.441Z,59.20
2018-07-24T17:38:29.676Z,58.80
2018-07-24T17:40:59.453Z,59.80
2018-07-24T17:43:28.827Z,59.70
2018-07-24T17:45:58.257Z,59.20
2018-07-24T17:48:34.095Z,58.80
2018-07-24T17:51:03.532Z,58.00
2018-07-24T17:53:32.860Z,59.30
2018-07-24T17:56:02.214Z,61.40
2018-07-24T17:58:31.541Z,61.70
2018-07-24T18:01:00.942Z,63.70
2018-07-24T18:03:30.258Z,61.20
2018-07-24T18:05:59.582Z,63.80
2018-07-24T18:08:28.887Z,67.70
2018-07-24T18:10:58.197Z,66.20
2018-07-24T18:13:27.804Z,67.50
2018-07-24T18:15:57.194Z,71.10
2018-07-24T18:18:26.425Z,70.70
2018-07-24T18:20:55.912Z,70.30
2018-07-24T18:23:25.549Z,69.90
2018-07-24T18:25:54.850Z,72.70
2018-07-24T18:28:24.352Z,69.70
2018-07-24T18:30:54.044Z,74.80
2018-07-24T18:33:23.529Z,78.60
2018-07-24T18:35:52.888Z,80.50
2018-07-24T18:38:22.205Z,84.60
2018-07-24T18:40:51.644Z,85.90
2018-07-24T18:43:21.078Z,86.20
2018-07-24T18:45:50.736Z,79.80
2018-07-24T18:48:20.071Z,78.80
2018-07-24T18:50:49.421Z,80.10
2018-07-24T18:53:18.786Z,77.50
2018-07-24T18:55:48.160Z,75.50
2018-07-24T18:58:17.529Z,79.20
2018-07-24T19:00:46.993Z,78.50
2018-07-24T19:03:16.344Z,78.00
2018-07-24T19:05:46.255Z,77.70
2018-07-24T19:08:16.187Z,76.90
2018-07-24T19:10:45.596Z,75.90
2018-07-24T19:13:14.896Z,76.20
2018-07-24T19:15:44.256Z,75.20
2018-07-24T19:18:13.588Z,77.60
2018-07-24T19:20:43.001Z,75.90
2018-07-24T19:23:12.402Z,74.50
2018-07-24T19:25:41.703Z,76.40
2018-07-24T19:28:11.272Z,77.20
2018-07-24T19:30:40.600Z,76.60
2018-07-24T19:33:09.941Z,75.50
2018-07-24T19:35:39.208Z,78.40
2018-07-24T19:38:08.532Z,81.40
2018-07-24T19:40:37.947Z,83.60
2018-07-24T19:43:07.332Z,78.20
2018-07-24T19:45:36.731Z,77.90
2018-07-24T19:48:05.992Z,77.80
2018-07-24T19:50:35.836Z,80.90
2018-07-24T19:53:05.248Z,75.60
2018-07-24T19:55:34.564Z,81.70
2018-07-24T19:58:03.839Z,83.00
2018-07-24T20:00:33.199Z,81.90
2018-07-24T20:03:02.877Z,80.20
2018-07-24T20:05:32.148Z,81.80
2018-07-24T20:08:01.382Z,83.10
2018-07-24T20:10:30.673Z,83.90
2018-07-24T20:12:59.905Z,81.70
2018-07-24T20:15:29.197Z,83.60
2018-07-24T20:17:58.447Z,85.10
2018-07-24T20:20:27.697Z,87.80
2018-07-24T20:22:57.099Z,88.90
2018-07-24T20:25:26.252Z,88.40
2018-07-24T20:27:55.477Z,84.70
2018-07-24T20:30:24.744Z,87.00
2018-07-24T20:32:54.552Z,85.70
2018-07-24T20:35:23.820Z,80.30
2018-07-24T20:37:53.080Z,80.70
2018-07-24T20:40:22.361Z,76.20
2018-07-24T20:42:51.687Z,79.00
2018-07-24T20:45:20.904Z,83.50
2018-07-24T20:47:50.152Z,84.90
2018-07-24T20:50:19.480Z,83.80
2018-07-24T20:52:48.816Z,84.60
2018-07-24T20:55:18.360Z,89.70
2018-07-24T20:57:47.624Z,91.70
2018-07-24T21:02:45.585Z,98.70
2018-07-24T21:05:14.907Z,99.90
2018-07-24T21:07:44.145Z,99.90
2018-07-24T21:10:18.395Z,99.90
2018-07-24T21:12:49.640Z,99.90
2018-07-24T21:15:19.352Z,99.90
2018-07-24T21:17:48.616Z,99.90
2018-07-24T21:20:17.952Z,99.90
2018-07-24T21:22:47.172Z,99.90
2018-07-24T21:25:16.420Z,99.90
2018-07-24T21:27:45.704Z,99.90
2018-07-24T21:30:15.047Z,99.90
2018-07-24T21:32:44.276Z,99.90
2018-07-24T21:35:13.516Z,99.90
2018-07-24T21:37:42.824Z,99.90
2018-07-24T21:40:12.203Z,99.90
2018-07-24T21:42:41.502Z,99.90
2018-07-24T21:45:10.743Z,99.90
2018-07-24T21:47:39.973Z,99.90
2018-07-24T21:50:09.252Z,99.90
2018-07-24T21:52:38.474Z,99.90
2018-07-24T21:55:07.752Z,99.90
2018-07-24T21:57:37.012Z,99.90
2018-07-24T22:00:08.623Z,99.90
2018-07-24T22:02:37.894Z,99.90
2018-07-24T22:05:07.127Z,99.90
2018-07-24T22:07:37.117Z,99.90
2018-07-24T22:10:11.769Z,99.90
2018-07-24T22:12:41.034Z,99.90
2018-07-24T22:15:15.631Z,99.90
2018-07-24T22:17:45.071Z,99.90
2018-07-24T22:20:14.336Z,99.90
2018-07-24T22:22:43.572Z,99.90
2018-07-24T22:25:12.796Z,99.90
2018-07-24T22:27:42.044Z,99.90
2018-07-24T22:30:12.104Z,99.90
2018-07-24T22:32:41.392Z,99.90
2018-07-24T22:35:12.219Z,99.90
2018-07-24T22:37:41.444Z,99.90
2018-07-24T22:40:11.949Z,99.90
2018-07-24T22:42:41.187Z,99.90
2018-07-24T22:45:10.440Z,99.90
2018-07-24T22:47:39.672Z,99.90
2018-07-24T22:50:08.946Z,99.90
2018-07-24T22:52:38.212Z,99.90
2018-07-24T22:55:07.464Z,99.90
2018-07-24T22:57:36.708Z,99.90
2018-07-24T23:00:06.172Z,99.90
2018-07-24T23:02:35.451Z,99.90
2018-07-24T23:05:05.059Z,99.90
2018-07-24T23:07:34.281Z,99.90
2018-07-24T23:10:03.560Z,99.90
2018-07-24T23:12:33.033Z,99.90
2018-07-24T23:15:02.258Z,99.90
2018-07-24T23:17:31.460Z,99.90
2018-07-24T23:20:00.748Z,99.90
2018-07-24T23:22:29.976Z,99.90
2018-07-24T23:24:59.183Z,99.90
2018-07-24T23:27:28.451Z,99.90
2018-07-24T23:29:57.707Z,99.90
2018-07-24T23:34:56.172Z,99.90
2018-07-24T23:37:25.442Z,99.90
2018-07-24T23:39:54.719Z,99.90
2018-07-24T23:42:24.049Z,99.90
2018-07-24T23:44:53.373Z,99.90
2018-07-24T23:47:22.619Z,99.90
2018-07-24T23:49:51.975Z,99.90
2018-07-24T23:52:21.256Z,99.90
2018-07-24T23:54:50.468Z,99.90
2018-07-24T23:57:19.716Z,99.90
2018-07-24T23:59:49.052Z,99.90
